Time;durP1;ratioP1;P1;durP2;ratioP2;P2;SDS_P1;SDS_P2;PMS_P1;PMS_P2;Temp;Humidity;BMP_temperature;BMP_pressure;BME280_temperature;BME280_humidity;BME280_pressure;Samples;Min_cycle;Max_cycle;Signal;HPM_P1;HPM_P2
2020/09/14 00:01:29;;;;;;;5.4;2.3;;;;;;;;;;;;;
2020/09/14 00:03:54;;;;;;;3.5;2.2;;;;;;;;;;;;;
2020/09/14 00:06:20;;;;;;;2.6;1.8;;;;;;;;;;;;;
2020/09/14 00:08:45;;;;;;;3.7;2;;;;;;;;;;;;;
2020/09/14 00:11:10;;;;;;;3.9;2.1;;;;;;;;;;;;;
2020/09/14 00:13:35;;;;;;;4;2.4;;;;;;;;;;;;;
2020/09/14 00:16:00;;;;;;;4.3;2.2;;;;;;;;;;;;;
2020/09/14 00:18:25;;;;;;;3.3;1.7;;;;;;;;;;;;;
2020/09/14 00:20:50;;;;;;;2.8;2.2;;;;;;;;;;;;;
2020/09/14 00:23:15;;;;;;;3.1;2.3;;;;;;;;;;;;;
2020/09/14 00:25:40;;;;;;;3.4;2.1;;;;;;;;;;;;;
2020/09/14 00:28:07;;;;;;;3.1;1.8;;;;;;;;;;;;;
2020/09/14 00:30:32;;;;;;;3.2;1.8;;;;;;;;;;;;;
2020/09/14 00:32:57;;;;;;;2.8;2.2;;;;;;;;;;;;;
2020/09/14 00:35:22;;;;;;;3.7;2;;;;;;;;;;;;;
2020/09/14 00:37:49;;;;;;;4.3;2;;;;;;;;;;;;;
2020/09/14 00:40:14;;;;;;;3.8;2.3;;;;;;;;;;;;;
2020/09/14 00:42:41;;;;;;;2.8;2;;;;;;;;;;;;;
2020/09/14 00:45:06;;;;;;;2.8;1.9;;;;;;;;;;;;;
2020/09/14 00:47:31;;;;;;;3.7;2.3;;;;;;;;;;;;;
2020/09/14 00:49:57;;;;;;;5;2;;;;;;;;;;;;;
2020/09/14 00:52:22;;;;;;;3.4;2.2;;;;;;;;;;;;;
2020/09/14 00:54:47;;;;;;;4;2.4;;;;;;;;;;;;;
2020/09/14 00:57:12;;;;;;;3;2.1;;;;;;;;;;;;;
2020/09/14 00:59:37;;;;;;;3.9;2.3;;;;;;;;;;;;;
2020/09/14 01:02:02;;;;;;;3.9;2;;;;;;;;;;;;;
2020/09/14 01:04:30;;;;;;;3.2;2.2;;;;;;;;;;;;;
2020/09/14 01:06:54;;;;;;;1.9;1.7;;;;;;;;;;;;;
2020/09/14 01:09:20;;;;;;;3.3;2.3;;;;;;;;;;;;;
2020/09/14 01:11:50;;;;;;;4;1.9;;;;;;;;;;;;;
2020/09/14 01:14:15;;;;;;;3.6;2.1;;;;;;;;;;;;;
2020/09/14 01:16:40;;;;;;;5.4;2.2;;;;;;;;;;;;;
2020/09/14 01:19:05;;;;;;;3.6;2.1;;;;;;;;;;;;;
2020/09/14 01:21:31;;;;;;;4.1;1.9;;;;;;;;;;;;;
2020/09/14 01:24:52;;;;;;;6.5;2.3;;;;;;;;;;;;;
2020/09/14 01:27:17;;;;;;;3.2;2.1;;;;;;;;;;;;;
2020/09/14 01:29:42;;;;;;;4.7;2.1;;;;;;;;;;;;;
2020/09/14 01:32:07;;;;;;;2.8;1.8;;;;;;;;;;;;;
2020/09/14 01:34:36;;;;;;;2.5;1.9;;;;;;;;;;;;;
2020/09/14 01:37:01;;;;;;;3.3;2.2;;;;;;;;;;;;;
2020/09/14 01:39:27;;;;;;;5.8;2.4;;;;;;;;;;;;;
2020/09/14 01:41:51;;;;;;;4.9;2;;;;;;;;;;;;;
2020/09/14 01:44:17;;;;;;;6.3;2.1;;;;;;;;;;;;;
2020/09/14 01:46:42;;;;;;;5.9;2.5;;;;;;;;;;;;;
2020/09/14 01:49:07;;;;;;;6.4;2.7;;;;;;;;;;;;;
2020/09/14 01:51:34;;;;;;;5.9;2.3;;;;;;;;;;;;;
2020/09/14 01:53:59;;;;;;;8;2;;;;;;;;;;;;;
2020/09/14 01:56:24;;;;;;;3.4;2.3;;;;;;;;;;;;;
2020/09/14 01:58:49;;;;;;;2.8;2.1;;;;;;;;;;;;;
2020/09/14 02:01:16;;;;;;;4.4;2.2;;;;;;;;;;;;;
2020/09/14 02:03:41;;;;;;;6.2;2.3;;;;;;;;;;;;;
2020/09/14 02:06:12;;;;;;;10.9;3.2;;;;;;;;;;;;;
2020/09/14 02:08:35;;;;;;;11;2.5;;;;;;;;;;;;;
2020/09/14 02:11:03;;;;;;;5.1;2.4;;;;;;;;;;;;;
2020/09/14 02:13:31;;;;;;;5.8;2.8;;;;;;;;;;;;;
2020/09/14 02:15:56;;;;;;;6.8;2.1;;;;;;;;;;;;;
2020/09/14 02:18:22;;;;;;;4;2;;;;;;;;;;;;;
2020/09/14 02:20:47;;;;;;;11.2;2.7;;;;;;;;;;;;;
2020/09/14 02:23:13;;;;;;;9.7;3.3;;;;;;;;;;;;;
2020/09/14 02:25:39;;;;;;;5.4;2.7;;;;;;;;;;;;;
2020/09/14 02:28:04;;;;;;;3.7;2.1;;;;;;;;;;;;;
2020/09/14 02:30:32;;;;;;;6.3;2.6;;;;;;;;;;;;;
2020/09/14 02:32:58;;;;;;;4;2.2;;;;;;;;;;;;;
2020/09/14 02:35:23;;;;;;;3.2;1.9;;;;;;;;;;;;;
2020/09/14 02:37:49;;;;;;;2.4;1.7;;;;;;;;;;;;;
2020/09/14 02:40:13;;;;;;;7.5;2.4;;;;;;;;;;;;;
2020/09/14 02:42:43;;;;;;;10.8;2.9;;;;;;;;;;;;;
2020/09/14 02:45:10;;;;;;;14.3;2.7;;;;;;;;;;;;;
2020/09/14 02:47:35;;;;;;;7.9;2.5;;;;;;;;;;;;;
2020/09/14 02:50:02;;;;;;;3.4;2.2;;;;;;;;;;;;;
2020/09/14 02:52:27;;;;;;;7.9;2.7;;;;;;;;;;;;;
2020/09/14 02:54:53;;;;;;;19.8;3.1;;;;;;;;;;;;;
2020/09/14 02:57:18;;;;;;;8;2.6;;;;;;;;;;;;;
2020/09/14 02:59:45;;;;;;;4;2.5;;;;;;;;;;;;;
2020/09/14 03:02:10;;;;;;;6.1;2.5;;;;;;;;;;;;;
2020/09/14 03:04:35;;;;;;;3.9;2.4;;;;;;;;;;;;;
2020/09/14 03:07:00;;;;;;;6.9;2.5;;;;;;;;;;;;;
2020/09/14 03:09:26;;;;;;;5.7;2.8;;;;;;;;;;;;;
2020/09/14 03:11:54;;;;;;;6.1;3.3;;;;;;;;;;;;;
2020/09/14 03:14:22;;;;;;;6;2.2;;;;;;;;;;;;;
2020/09/14 03:16:47;;;;;;;4.9;2.9;;;;;;;;;;;;;
2020/09/14 03:19:14;;;;;;;7.1;3.1;;;;;;;;;;;;;
2020/09/14 03:21:39;;;;;;;6.4;2.9;;;;;;;;;;;;;
2020/09/14 03:24:04;;;;;;;3.1;2.1;;;;;;;;;;;;;
2020/09/14 03:26:29;;;;;;;5.6;2.2;;;;;;;;;;;;;
2020/09/14 03:28:55;;;;;;;5.9;2.3;;;;;;;;;;;;;
2020/09/14 03:31:21;;;;;;;6.6;2.2;;;;;;;;;;;;;
2020/09/14 03:33:46;;;;;;;5.8;2.4;;;;;;;;;;;;;
2020/09/14 03:36:11;;;;;;;16.3;2.5;;;;;;;;;;;;;
2020/09/14 03:38:38;;;;;;;4.2;2.6;;;;;;;;;;;;;
2020/09/14 03:41:02;;;;;;;8.2;2.5;;;;;;;;;;;;;
2020/09/14 03:43:28;;;;;;;6.8;2.5;;;;;;;;;;;;;
2020/09/14 03:45:53;;;;;;;5.9;2.9;;;;;;;;;;;;;
2020/09/14 03:48:19;;;;;;;4.5;2.2;;;;;;;;;;;;;
2020/09/14 03:50:46;;;;;;;6.8;2.7;;;;;;;;;;;;;
2020/09/14 03:53:11;;;;;;;6.9;3.4;;;;;;;;;;;;;
2020/09/14 03:55:36;;;;;;;6.4;2.8;;;;;;;;;;;;;
2020/09/14 03:58:02;;;;;;;5.6;2.7;;;;;;;;;;;;;
2020/09/14 04:02:33;;;;;;;5.4;2.4;;;;;;;14.06;85.39844;947.785;;;;
2020/09/14 04:05:08;;;;;;;3.4;2.3;;;;;;;13.98;85.48633;947.7486;;;;
2020/09/14 04:07:36;;;;;;;3.9;2.2;;;;;;;14.1;84.91016;947.642;;;;
2020/09/14 04:10:03;;;;;;;3.5;2.4;;;;;;;;;;;;;
2020/09/14 04:12:28;;;;;;;4;2.1;;;;;;;;;;;;;
2020/09/14 04:14:55;;;;;;;3.9;2.4;;;;;;;;;;;;;
2020/09/14 04:17:20;;;;;;;5.6;2.7;;;;;;;;;;;;;
2020/09/14 04:19:52;;;;;;;4.1;2.3;;;;;;;;;;;;;
2020/09/14 04:22:17;;;;;;;3.5;2.2;;;;;;;;;;;;;
2020/09/14 04:24:45;;;;;;;4;2.2;;;;;;;;;;;;;
2020/09/14 04:27:10;;;;;;;6.1;2.4;;;;;;;;;;;;;
2020/09/14 04:29:35;;;;;;;3.3;2.2;;;;;;;;;;;;;
2020/09/14 04:32:02;;;;;;;5.9;2.5;;;;;;;;;;;;;
2020/09/14 04:34:27;;;;;;;4;2;;;;;;;;;;;;;
2020/09/14 04:36:57;;;;;;;6.4;2.5;;;;;;;;;;;;;
2020/09/14 04:39:24;;;;;;;5.1;2.2;;;;;;;;;;;;;
2020/09/14 04:41:49;;;;;;;2.9;2.1;;;;;;;;;;;;;
2020/09/14 04:44:20;;;;;;;7.9;1.9;;;;;;;;;;;;;
2020/09/14 04:46:53;;;;;;;4.3;2.4;;;;;;;;;;;;;
2020/09/14 04:49:18;;;;;;;10.7;2.9;;;;;;;;;;;;;
2020/09/14 04:51:43;;;;;;;3.6;2;;;;;;;;;;;;;
2020/09/14 04:54:09;;;;;;;3.5;2.2;;;;;;;;;;;;;
2020/09/14 04:56:34;;;;;;;3.2;2.2;;;;;;;;;;;;;
2020/09/14 04:59:00;;;;;;;4.5;2.7;;;;;;;;;;;;;
2020/09/14 05:01:25;;;;;;;6;2.3;;;;;;;;;;;;;
2020/09/14 05:03:53;;;;;;;3.7;2.3;;;;;;;;;;;;;
2020/09/14 05:06:19;;;;;;;6.8;2.7;;;;;;;;;;;;;
2020/09/14 05:08:46;;;;;;;6.6;2.5;;;;;;;;;;;;;
2020/09/14 05:11:11;;;;;;;4.4;2.5;;;;;;;;;;;;;
2020/09/14 05:13:38;;;;;;;11.7;2.5;;;;;;;;;;;;;
2020/09/14 05:16:04;;;;;;;6.9;2.4;;;;;;;;;;;;;
2020/09/14 05:18:29;;;;;;;3.4;2;;;;;;;;;;;;;
2020/09/14 05:20:54;;;;;;;2.7;1.8;;;;;;;;;;;;;
2020/09/14 05:23:19;;;;;;;3.9;2;;;;;;;;;;;;;
2020/09/14 05:25:45;;;;;;;3.4;2;;;;;;;;;;;;;
2020/09/14 05:28:10;;;;;;;4.5;2;;;;;;;;;;;;;
2020/09/14 05:30:35;;;;;;;5.5;2.2;;;;;;;;;;;;;
2020/09/14 05:33:01;;;;;;;8.5;1.8;;;;;;;;;;;;;
2020/09/14 05:35:26;;;;;;;4.9;2.2;;;;;;;;;;;;;
2020/09/14 05:37:51;;;;;;;3.3;2.1;;;;;;;;;;;;;
2020/09/14 05:40:19;;;;;;;3.2;2.1;;;;;;;;;;;;;
2020/09/14 05:42:48;;;;;;;3.6;1.6;;;;;;;;;;;;;
2020/09/14 05:45:13;;;;;;;2.7;1.9;;;;;;;;;;;;;
2020/09/14 05:47:38;;;;;;;6.4;2.2;;;;;;;;;;;;;
2020/09/14 05:50:04;;;;;;;3.8;2.1;;;;;;;;;;;;;
2020/09/14 05:52:31;;;;;;;3.1;2;;;;;;;;;;;;;
2020/09/14 05:54:56;;;;;;;4.4;1.9;;;;;;;;;;;;;
2020/09/14 05:57:21;;;;;;;3.4;2.1;;;;;;;;;;;;;
2020/09/14 05:59:47;;;;;;;3.3;1.8;;;;;;;;;;;;;
2020/09/14 06:02:19;;;;;;;4;2;;;;;;;;;;;;;
2020/09/14 06:04:51;;;;;;;3;2;;;;;;;;;;;;;
2020/09/14 06:07:17;;;;;;;3.3;1.7;;;;;;;;;;;;;
2020/09/14 06:09:42;;;;;;;4.2;1.9;;;;;;;;;;;;;
2020/09/14 06:12:07;;;;;;;3.7;2.1;;;;;;;;;;;;;
2020/09/14 06:14:33;;;;;;;4.1;2.2;;;;;;;;;;;;;
2020/09/14 06:16:58;;;;;;;3.8;1.7;;;;;;;;;;;;;
2020/09/14 06:19:23;;;;;;;1.8;1.5;;;;;;;;;;;;;
2020/09/14 06:21:48;;;;;;;3.2;1.9;;;;;;;;;;;;;
2020/09/14 06:24:13;;;;;;;2.8;1.7;;;;;;;;;;;;;
2020/09/14 06:26:40;;;;;;;2.6;1.7;;;;;;;;;;;;;
2020/09/14 06:29:05;;;;;;;2.1;1.5;;;;;;;;;;;;;
2020/09/14 06:31:31;;;;;;;4.1;1.8;;;;;;;;;;;;;
2020/09/14 06:33:56;;;;;;;2.9;1.7;;;;;;;;;;;;;
2020/09/14 06:36:27;;;;;;;2.9;1.9;;;;;;;;;;;;;
2020/09/14 06:39:02;;;;;;;3.6;1.9;;;;;;;;;;;;;
2020/09/14 06:41:28;;;;;;;3.5;2.3;;;;;;;;;;;;;
2020/09/14 06:43:53;;;;;;;5.7;1.9;;;;;;;;;;;;;
2020/09/14 06:46:25;;;;;;;2.2;1.4;;;;;;;;;;;;;
2020/09/14 06:48:58;;;;;;;3;1.9;;;;;;;;;;;;;
2020/09/14 06:51:22;;;;;;;2.2;1.7;;;;;;;;;;;;;
2020/09/14 06:53:48;;;;;;;4.4;1.7;;;;;;;;;;;;;
2020/09/14 06:56:13;;;;;;;3.6;1.6;;;;;;;;;;;;;
2020/09/14 06:58:38;;;;;;;3.3;1.6;;;;;;;;;;;;;
2020/09/14 07:01:05;;;;;;;2.9;1.7;;;;;;;;;;;;;
2020/09/14 07:03:29;;;;;;;2.2;1.5;;;;;;;;;;;;;
2020/09/14 07:05:54;;;;;;;2.3;1.4;;;;;;;;;;;;;
2020/09/14 07:08:20;;;;;;;3.3;1.6;;;;;;;;;;;;;
2020/09/14 07:10:48;;;;;;;3.1;1.5;;;;;;;;;;;;;
2020/09/14 07:13:13;;;;;;;3.3;1.9;;;;;;;;;;;;;
2020/09/14 07:15:39;;;;;;;2.1;1.4;;;;;;;;;;;;;
2020/09/14 07:18:04;;;;;;;2.3;1.5;;;;;;;;;;;;;
2020/09/14 07:20:29;;;;;;;2.9;1.4;;;;;;;;;;;;;
2020/09/14 07:22:54;;;;;;;2.7;1.9;;;;;;;;;;;;;
2020/09/14 07:25:20;;;;;;;2.5;1.2;;;;;;;;;;;;;
2020/09/14 07:27:53;;;;;;;1.4;1;;;;;;;;;;;;;
2020/09/14 07:30:19;;;;;;;3.1;1.4;;;;;;;;;;;;;
2020/09/14 07:32:44;;;;;;;2.3;1.1;;;;;;;;;;;;;
2020/09/14 07:35:09;;;;;;;9.4;0.9;;;;;;;;;;;;;
2020/09/14 07:37:34;;;;;;;2.1;1.2;;;;;;;;;;;;;
2020/09/14 07:40:00;;;;;;;0.9;0.8;;;;;;;;;;;;;
2020/09/14 07:42:25;;;;;;;2.3;1.4;;;;;;;;;;;;;
2020/09/14 07:44:53;;;;;;;2.2;1.2;;;;;;;;;;;;;
2020/09/14 07:47:18;;;;;;;3.4;1.7;;;;;;;;;;;;;
2020/09/14 07:49:43;;;;;;;1.3;0.6;;;;;;;;;;;;;
2020/09/14 07:52:08;;;;;;;2.9;1.3;;;;;;;;;;;;;
2020/09/14 07:54:34;;;;;;;1.4;1.1;;;;;;;;;;;;;
2020/09/14 07:56:59;;;;;;;1.9;1;;;;;;;;;;;;;
2020/09/14 07:59:28;;;;;;;0.9;0.8;;;;;;;;;;;;;
2020/09/14 08:01:53;;;;;;;2.4;1;;;;;;;;;;;;;
2020/09/14 08:04:19;;;;;;;2.1;1.3;;;;;;;;;;;;;
2020/09/14 08:06:44;;;;;;;1.6;1.1;;;;;;;;;;;;;
2020/09/14 08:09:09;;;;;;;1.7;1.2;;;;;;;;;;;;;
2020/09/14 08:11:34;;;;;;;1.9;1.1;;;;;;;;;;;;;
2020/09/14 08:13:59;;;;;;;2.3;1.2;;;;;;;;;;;;;
2020/09/14 08:16:24;;;;;;;1.3;0.9;;;;;;;;;;;;;
2020/09/14 08:18:50;;;;;;;1;0.9;;;;;;;;;;;;;
2020/09/14 08:21:15;;;;;;;1.3;1;;;;;;;;;;;;;
2020/09/14 08:23:41;;;;;;;2;0.8;;;;;;;;;;;;;
2020/09/14 08:26:12;;;;;;;1.7;0.8;;;;;;;;;;;;;
2020/09/14 08:28:32;;;;;;;1.7;1.1;;;;;;;;;;;;;
2020/09/14 08:30:57;;;;;;;2;0.9;;;;;;;;;;;;;
2020/09/14 08:33:25;;;;;;;1.1;0.9;;;;;;;;;;;;;
2020/09/14 08:35:50;;;;;;;1.4;0.7;;;;;;;;;;;;;
2020/09/14 08:38:15;;;;;;;0.9;0.6;;;;;;;;;;;;;
2020/09/14 08:40:40;;;;;;;1.5;0.9;;;;;;;;;;;;;
2020/09/14 08:43:05;;;;;;;1.8;0.7;;;;;;;;;;;;;
2020/09/14 08:45:30;;;;;;;1;0.8;;;;;;;;;;;;;
2020/09/14 08:47:56;;;;;;;1.6;0.8;;;;;;;;;;;;;
2020/09/14 08:50:21;;;;;;;0.9;0.7;;;;;;;;;;;;;
2020/09/14 08:52:46;;;;;;;0.8;0.5;;;;;;;;;;;;;
2020/09/14 08:55:11;;;;;;;1.4;0.8;;;;;;;;;;;;;
2020/09/14 08:57:36;;;;;;;1;0.7;;;;;;;;;;;;;
2020/09/14 09:00:02;;;;;;;1.3;0.9;;;;;;;;;;;;;
2020/09/14 09:02:28;;;;;;;1.3;0.8;;;;;;;;;;;;;
2020/09/14 09:04:53;;;;;;;1.8;1.1;;;;;;;;;;;;;
2020/09/14 09:07:19;;;;;;;1.2;0.9;;;;;;;;;;;;;
2020/09/14 09:09:44;;;;;;;2;1.1;;;;;;;;;;;;;
2020/09/14 09:12:10;;;;;;;1.8;0.9;;;;;;;;;;;;;
2020/09/14 09:14:35;;;;;;;2.5;0.8;;;;;;;;;;;;;
2020/09/14 09:17:02;;;;;;;1.8;0.9;;;;;;;;;;;;;
2020/09/14 09:19:27;;;;;;;2.5;0.9;;;;;;;;;;;;;
2020/09/14 09:21:53;;;;;;;1.5;0.9;;;;;;;;;;;;;
2020/09/14 09:24:18;;;;;;;1.2;0.8;;;;;;;;;;;;;
2020/09/14 09:26:44;;;;;;;1.1;0.9;;;;;;;;;;;;;
2020/09/14 09:29:09;;;;;;;1;0.7;;;;;;;;;;;;;
2020/09/14 09:31:35;;;;;;;1.3;0.9;;;;;;;;;;;;;
2020/09/14 09:34:00;;;;;;;1.5;0.9;;;;;;;;;;;;;
2020/09/14 09:36:27;;;;;;;1.6;0.9;;;;;;;;;;;;;
2020/09/14 09:38:52;;;;;;;1.9;0.8;;;;;;;;;;;;;
2020/09/14 09:41:18;;;;;;;1.4;0.9;;;;;;;;;;;;;
2020/09/14 09:43:43;;;;;;;1.7;1.1;;;;;;;;;;;;;
2020/09/14 09:46:10;;;;;;;3.9;1.1;;;;;;;;;;;;;
2020/09/14 09:48:35;;;;;;;1.2;0.9;;;;;;;;;;;;;
2020/09/14 09:51:00;;;;;;;0.8;0.8;;;;;;;;;;;;;
2020/09/14 09:53:25;;;;;;;2.4;1;;;;;;;;;;;;;
2020/09/14 09:55:51;;;;;;;7.2;1.3;;;;;;;;;;;;;
2020/09/14 09:58:16;;;;;;;0.8;0.7;;;;;;;;;;;;;
2020/09/14 10:00:44;;;;;;;1.7;1.2;;;;;;;;;;;;;
2020/09/14 10:03:09;;;;;;;1.6;0.7;;;;;;;;;;;;;
2020/09/14 10:05:34;;;;;;;1.9;1.1;;;;;;;;;;;;;
2020/09/14 10:07:59;;;;;;;2.2;1.1;;;;;;;;;;;;;
2020/09/14 10:10:25;;;;;;;1.4;0.8;;;;;;;;;;;;;
2020/09/14 10:12:50;;;;;;;1.7;0.9;;;;;;;;;;;;;
2020/09/14 10:15:15;;;;;;;1.2;1;;;;;;;;;;;;;
2020/09/14 10:17:40;;;;;;;4.4;1.3;;;;;;;;;;;;;
2020/09/14 10:20:05;;;;;;;1.8;1.1;;;;;;;;;;;;;
2020/09/14 10:22:34;;;;;;;2.2;1.2;;;;;;;;;;;;;
2020/09/14 10:25:00;;;;;;;1.8;0.9;;;;;;;;;;;;;
2020/09/14 10:27:25;;;;;;;9.9;4.1;;;;;;;;;;;;;
2020/09/14 10:29:50;;;;;;;2.1;1.4;;;;;;;;;;;;;
2020/09/14 10:32:15;;;;;;;1.6;1;;;;;;;;;;;;;
2020/09/14 10:34:40;;;;;;;7.7;3.9;;;;;;;;;;;;;
2020/09/14 10:37:05;;;;;;;8.2;3.1;;;;;;;;;;;;;
2020/09/14 10:39:30;;;;;;;31.7;9.5;;;;;;;;;;;;;
2020/09/14 10:41:56;;;;;;;1.7;1.2;;;;;;;;;;;;;
2020/09/14 10:44:21;;;;;;;2.6;1.1;;;;;;;;;;;;;
2020/09/14 10:46:48;;;;;;;1.2;0.8;;;;;;;;;;;;;
2020/09/14 10:49:13;;;;;;;2.2;1.1;;;;;;;;;;;;;
2020/09/14 10:51:38;;;;;;;1.7;1.1;;;;;;;;;;;;;
2020/09/14 10:54:03;;;;;;;7.3;2.8;;;;;;;;;;;;;
2020/09/14 10:56:28;;;;;;;4.9;2.7;;;;;;;;;;;;;
2020/09/14 10:58:54;;;;;;;7.6;2.9;;;;;;;;;;;;;
2020/09/14 11:01:19;;;;;;;6.6;2.2;;;;;;;;;;;;;
2020/09/14 11:03:45;;;;;;;4;1.7;;;;;;;;;;;;;
2020/09/14 11:06:10;;;;;;;3.4;1.3;;;;;;;;;;;;;
2020/09/14 11:08:35;;;;;;;2.6;1.4;;;;;;;;;;;;;
2020/09/14 11:11:00;;;;;;;4;1.5;;;;;;;;;;;;;
2020/09/14 11:13:26;;;;;;;2.4;1.4;;;;;;;;;;;;;
2020/09/14 11:15:51;;;;;;;2;1.2;;;;;;;;;;;;;
2020/09/14 11:18:18;;;;;;;1.9;1.1;;;;;;;;;;;;;
2020/09/14 11:20:43;;;;;;;1.9;1.2;;;;;;;;;;;;;
2020/09/14 11:23:09;;;;;;;2.9;1.5;;;;;;;;;;;;;
2020/09/14 11:25:34;;;;;;;2;1.2;;;;;;;;;;;;;
2020/09/14 11:27:59;;;;;;;2.5;0.9;;;;;;;;;;;;;
2020/09/14 11:30:26;;;;;;;1.4;0.8;;;;;;;;;;;;;
2020/09/14 11:32:51;;;;;;;1;0.8;;;;;;;;;;;;;
2020/09/14 11:35:19;;;;;;;1.3;1.2;;;;;;;;;;;;;
2020/09/14 11:37:46;;;;;;;2.6;1;;;;;;;;;;;;;
2020/09/14 11:40:11;;;;;;;1.1;1;;;;;;;;;;;;;
2020/09/14 11:42:36;;;;;;;2.4;1.1;;;;;;;;;;;;;
2020/09/14 11:45:01;;;;;;;1.4;1.2;;;;;;;;;;;;;
2020/09/14 11:47:26;;;;;;;1.9;1.3;;;;;;;;;;;;;
2020/09/14 11:49:52;;;;;;;1.8;1.2;;;;;;;;;;;;;
2020/09/14 11:52:17;;;;;;;6.3;1.5;;;;;;;;;;;;;
2020/09/14 11:54:44;;;;;;;1.5;1;;;;;;;;;;;;;
2020/09/14 11:57:09;;;;;;;3.2;0.9;;;;;;;;;;;;;
2020/09/14 11:59:34;;;;;;;13.8;1.7;;;;;;;;;;;;;
2020/09/14 12:02:00;;;;;;;2.6;1.3;;;;;;;;;;;;;
2020/09/14 12:04:29;;;;;;;1.3;0.9;;;;;;;;;;;;;
2020/09/14 12:06:54;;;;;;;2.4;1.5;;;;;;;;;;;;;
2020/09/14 12:09:19;;;;;;;2.3;1;;;;;;;;;;;;;
2020/09/14 12:11:44;;;;;;;1.4;1.3;;;;;;;;;;;;;
2020/09/14 12:14:09;;;;;;;1.9;1.1;;;;;;;;;;;;;
2020/09/14 12:16:34;;;;;;;3.3;1.1;;;;;;;;;;;;;
2020/09/14 12:19:02;;;;;;;1.8;1.2;;;;;;;;;;;;;
2020/09/14 12:21:27;;;;;;;1.6;1.1;;;;;;;;;;;;;
2020/09/14 12:23:53;;;;;;;3.1;1.1;;;;;;;;;;;;;
2020/09/14 12:26:18;;;;;;;2.2;1.2;;;;;;;;;;;;;
2020/09/14 12:28:43;;;;;;;2;1.2;;;;;;;;;;;;;
2020/09/14 12:31:08;;;;;;;1.4;1;;;;;;;;;;;;;
2020/09/14 12:33:34;;;;;;;1.7;1.2;;;;;;;;;;;;;
2020/09/14 12:36:00;;;;;;;2.1;1.1;;;;;;;;;;;;;
2020/09/14 12:38:27;;;;;;;1.9;1.1;;;;;;;;;;;;;
2020/09/14 12:40:52;;;;;;;3.2;1.2;;;;;;;;;;;;;
2020/09/14 12:43:17;;;;;;;3.3;1.3;;;;;;;;;;;;;
2020/09/14 12:45:42;;;;;;;1.9;1;;;;;;;;;;;;;
2020/09/14 12:48:08;;;;;;;3.6;1.5;;;;;;;;;;;;;
2020/09/14 12:50:33;;;;;;;1.6;1.1;;;;;;;;;;;;;
2020/09/14 12:53:00;;;;;;;1.5;1;;;;;;;;;;;;;
2020/09/14 12:55:26;;;;;;;2.8;1.2;;;;;;;;;;;;;
2020/09/14 12:57:53;;;;;;;1.7;1;;;;;;;;;;;;;
2020/09/14 13:00:19;;;;;;;1.8;0.9;;;;;;;;;;;;;
2020/09/14 13:02:45;;;;;;;2.8;1.3;;;;;;;;;;;;;
2020/09/14 13:05:10;;;;;;;2.1;1.3;;;;;;;;;;;;;
2020/09/14 13:07:35;;;;;;;1.3;0.9;;;;;;;;;;;;;
2020/09/14 13:10:00;;;;;;;2.8;1.6;;;;;;;;;;;;;
2020/09/14 13:12:25;;;;;;;2;1.1;;;;;;;;;;;;;
2020/09/14 13:14:50;;;;;;;1.4;0.8;;;;;;;;;;;;;
2020/09/14 13:17:16;;;;;;;1.5;1;;;;;;;;;;;;;
2020/09/14 13:19:41;;;;;;;2.2;1.1;;;;;;;;;;;;;
2020/09/14 13:22:06;;;;;;;1.1;0.8;;;;;;;;;;;;;
2020/09/14 13:24:31;;;;;;;3.2;1.1;;;;;;;;;;;;;
2020/09/14 13:26:56;;;;;;;1.7;1;;;;;;;;;;;;;
2020/09/14 13:29:23;;;;;;;1.4;1;;;;;;;;;;;;;
2020/09/14 13:31:48;;;;;;;1.9;1;;;;;;;;;;;;;
2020/09/14 13:34:15;;;;;;;1.1;0.8;;;;;;;;;;;;;
2020/09/14 13:36:39;;;;;;;1.9;1;;;;;;;;;;;;;
2020/09/14 13:39:04;;;;;;;1.2;0.9;;;;;;;;;;;;;
2020/09/14 13:41:31;;;;;;;1.6;1;;;;;;;;;;;;;
2020/09/14 13:43:56;;;;;;;2.1;1.1;;;;;;;;;;;;;
2020/09/14 13:46:23;;;;;;;2.1;0.8;;;;;;;;;;;;;
2020/09/14 13:48:48;;;;;;;1.5;1.1;;;;;;;;;;;;;
2020/09/14 13:51:13;;;;;;;2.2;1.2;;;;;;;;;;;;;
2020/09/14 13:53:38;;;;;;;1.5;1;;;;;;;;;;;;;
2020/09/14 13:56:03;;;;;;;2.2;1.1;;;;;;;;;;;;;
2020/09/14 13:58:29;;;;;;;1.9;1.1;;;;;;;;;;;;;
2020/09/14 14:00:54;;;;;;;2.7;1.5;;;;;;;;;;;;;
2020/09/14 14:03:19;;;;;;;1.9;1.3;;;;;;;;;;;;;
2020/09/14 14:05:44;;;;;;;1.3;1.1;;;;;;;;;;;;;
2020/09/14 14:08:09;;;;;;;2.9;1.1;;;;;;;;;;;;;
2020/09/14 14:10:35;;;;;;;5.7;1.4;;;;;;;;;;;;;
2020/09/14 14:13:00;;;;;;;3.6;1.1;;;;;;;;;;;;;
2020/09/14 14:15:28;;;;;;;1.6;1.1;;;;;;;;;;;;;
2020/09/14 14:17:53;;;;;;;1.5;0.9;;;;;;;;;;;;;
2020/09/14 14:20:19;;;;;;;3.3;1;;;;;;;;;;;;;
2020/09/14 14:22:44;;;;;;;4.3;1.1;;;;;;;;;;;;;
2020/09/14 14:25:09;;;;;;;1.8;1;;;;;;;;;;;;;
2020/09/14 14:27:34;;;;;;;1.8;1.3;;;;;;;;;;;;;
2020/09/14 14:29:59;;;;;;;2.3;1.4;;;;;;;;;;;;;
2020/09/14 14:32:25;;;;;;;3;1.1;;;;;;;;;;;;;
2020/09/14 14:34:51;;;;;;;5.6;1.1;;;;;;;;;;;;;
2020/09/14 14:37:16;;;;;;;1;0.9;;;;;;;;;;;;;
2020/09/14 14:39:42;;;;;;;10.6;1.3;;;;;;;;;;;;;
2020/09/14 14:42:07;;;;;;;2.6;1;;;;;;;;;;;;;
2020/09/14 14:44:35;;;;;;;1.7;1.2;;;;;;;;;;;;;
2020/09/14 14:47:01;;;;;;;2;1.4;;;;;;;;;;;;;
2020/09/14 14:49:26;;;;;;;2.3;1.7;;;;;;;;;;;;;
2020/09/14 14:51:51;;;;;;;1.5;1.1;;;;;;;;;;;;;
2020/09/14 14:54:16;;;;;;;2.1;1.1;;;;;;;;;;;;;
2020/09/14 14:56:41;;;;;;;2.7;1.2;;;;;;;;;;;;;
2020/09/14 14:59:07;;;;;;;1.6;1.3;;;;;;;;;;;;;
2020/09/14 15:01:32;;;;;;;1.2;1;;;;;;;;;;;;;
2020/09/14 15:03:59;;;;;;;1.8;1.2;;;;;;;;;;;;;
2020/09/14 15:06:24;;;;;;;2.8;1.5;;;;;;;;;;;;;
2020/09/14 15:08:50;;;;;;;1.5;0.9;;;;;;;;;;;;;
2020/09/14 15:11:16;;;;;;;4;1.4;;;;;;;;;;;;;
2020/09/14 15:13:41;;;;;;;2.1;1.3;;;;;;;;;;;;;
2020/09/14 15:16:06;;;;;;;2.9;1.6;;;;;;;;;;;;;
2020/09/14 15:18:33;;;;;;;2.2;1.2;;;;;;;;;;;;;
2020/09/14 15:21:00;;;;;;;1;0.9;;;;;;;;;;;;;
2020/09/14 15:23:25;;;;;;;1.2;0.9;;;;;;;;;;;;;
2020/09/14 15:25:51;;;;;;;1.7;1.3;;;;;;;;;;;;;
2020/09/14 15:28:16;;;;;;;1.9;1.2;;;;;;;;;;;;;
2020/09/14 15:30:47;;;;;;;1.8;1;;;;;;;;;;;;;
2020/09/14 15:33:13;;;;;;;2.2;1.3;;;;;;;;;;;;;
2020/09/14 15:35:38;;;;;;;3.6;1.6;;;;;;;;;;;;;
2020/09/14 15:38:04;;;;;;;1.9;1.4;;;;;;;;;;;;;
2020/09/14 15:40:29;;;;;;;1.9;1.4;;;;;;;;;;;;;
2020/09/14 15:42:54;;;;;;;9.4;3.3;;;;;;;;;;;;;
2020/09/14 15:45:28;;;;;;;3.2;1.3;;;;;;;;;;;;;
2020/09/14 15:47:53;;;;;;;3.3;1.6;;;;;;;;;;;;;
2020/09/14 15:50:18;;;;;;;2.8;1;;;;;;;;;;;;;
2020/09/14 15:52:44;;;;;;;1.4;1.1;;;;;;;;;;;;;
2020/09/14 15:55:09;;;;;;;4.6;1.4;;;;;;;;;;;;;
2020/09/14 15:57:35;;;;;;;1.8;1.1;;;;;;;;;;;;;
2020/09/14 15:59:59;;;;;;;1.9;1.3;;;;;;;;;;;;;
2020/09/14 16:02:27;;;;;;;1.2;1;;;;;;;;;;;;;
2020/09/14 16:04:52;;;;;;;1.8;1.2;;;;;;;;;;;;;
2020/09/14 16:07:18;;;;;;;4.8;1.4;;;;;;;;;;;;;
2020/09/14 16:09:44;;;;;;;1.1;0.9;;;;;;;;;;;;;
2020/09/14 16:12:11;;;;;;;2.8;1.4;;;;;;;;;;;;;
2020/09/14 16:14:36;;;;;;;2.3;1.3;;;;;;;;;;;;;
2020/09/14 16:17:01;;;;;;;1.6;1.2;;;;;;;;;;;;;
2020/09/14 16:19:26;;;;;;;2.6;0.8;;;;;;;;;;;;;
2020/09/14 16:21:52;;;;;;;2.3;1.3;;;;;;;;;;;;;
2020/09/14 16:24:17;;;;;;;2.3;1.5;;;;;;;;;;;;;
2020/09/14 16:26:43;;;;;;;1.9;1;;;;;;;;;;;;;
2020/09/14 16:29:08;;;;;;;2.6;1.3;;;;;;;;;;;;;
2020/09/14 16:31:35;;;;;;;1.6;1.3;;;;;;;;;;;;;
2020/09/14 16:34:00;;;;;;;2.2;1.4;;;;;;;;;;;;;
2020/09/14 16:36:26;;;;;;;1.6;1.1;;;;;;;;;;;;;
2020/09/14 16:38:51;;;;;;;2.3;1.4;;;;;;;;;;;;;
2020/09/14 16:41:18;;;;;;;3.5;1.1;;;;;;;;;;;;;
2020/09/14 16:43:42;;;;;;;1.4;1.1;;;;;;;;;;;;;
2020/09/14 16:46:10;;;;;;;1.9;1;;;;;;;;;;;;;
2020/09/14 16:48:35;;;;;;;2.8;1.3;;;;;;;;;;;;;
2020/09/14 16:51:00;;;;;;;1.5;1.2;;;;;;;;;;;;;
2020/09/14 16:53:25;;;;;;;1.5;1;;;;;;;;;;;;;
2020/09/14 16:55:51;;;;;;;2.4;1.2;;;;;;;;;;;;;
2020/09/14 16:58:17;;;;;;;1.3;1.2;;;;;;;;;;;;;
2020/09/14 17:00:46;;;;;;;1.9;1.1;;;;;;;;;;;;;
2020/09/14 17:03:11;;;;;;;1.5;1;;;;;;;;;;;;;
2020/09/14 17:05:36;;;;;;;3.5;1.7;;;;;;;;;;;;;
2020/09/14 17:08:02;;;;;;;1.4;1.2;;;;;;;;;;;;;
2020/09/14 17:10:28;;;;;;;2.2;1.4;;;;;;;;;;;;;
2020/09/14 17:12:58;;;;;;;1.8;1;;;;;;;;;;;;;
2020/09/14 17:15:18;;;;;;;3.5;2;;;;;;;;;;;;;
2020/09/14 17:17:43;;;;;;;14.8;5.1;;;;;;;;;;;;;
2020/09/14 17:20:08;;;;;;;5.2;2.2;;;;;;;;;;;;;
2020/09/14 17:22:33;;;;;;;2.4;1.7;;;;;;;;;;;;;
2020/09/14 17:24:58;;;;;;;1.2;1;;;;;;;;;;;;;
2020/09/14 17:27:24;;;;;;;1.7;1.2;;;;;;;;;;;;;
2020/09/14 17:29:49;;;;;;;3.1;1.4;;;;;;;;;;;;;
2020/09/14 17:32:14;;;;;;;1.6;1.1;;;;;;;;;;;;;
2020/09/14 17:34:39;;;;;;;2.9;1.5;;;;;;;;;;;;;
2020/09/14 17:37:04;;;;;;;5.5;2.5;;;;;;;;;;;;;
2020/09/14 17:39:32;;;;;;;4;2;;;;;;;;;;;;;
2020/09/14 17:41:58;;;;;;;5.9;2.8;;;;;;;;;;;;;
2020/09/14 17:44:23;;;;;;;4.4;2;;;;;;;;;;;;;
2020/09/14 17:46:49;;;;;;;10.8;2.2;;;;;;;;;;;;;
2020/09/14 17:49:14;;;;;;;3.2;1.8;;;;;;;;;;;;;
2020/09/14 17:51:41;;;;;;;3.2;1.7;;;;;;;;;;;;;
2020/09/14 17:54:05;;;;;;;3.4;2.4;;;;;;;;;;;;;
2020/09/14 17:56:31;;;;;;;2.5;1.9;;;;;;;;;;;;;
2020/09/14 17:58:56;;;;;;;5;2.2;;;;;;;;;;;;;
2020/09/14 18:01:22;;;;;;;5;2.3;;;;;;;;;;;;;
2020/09/14 18:03:46;;;;;;;2.5;1.6;;;;;;;;;;;;;
2020/09/14 18:06:11;;;;;;;2.2;1.8;;;;;;;;;;;;;
2020/09/14 18:08:37;;;;;;;4.3;1.6;;;;;;;;;;;;;
2020/09/14 18:11:02;;;;;;;3.7;1.8;;;;;;;;;;;;;
2020/09/14 18:13:28;;;;;;;3.8;2;;;;;;;;;;;;;
2020/09/14 18:15:56;;;;;;;3.6;2.1;;;;;;;;;;;;;
2020/09/14 18:18:24;;;;;;;3.4;2;;;;;;;;;;;;;
2020/09/14 18:20:48;;;;;;;4.2;2.2;;;;;;;;;;;;;
2020/09/14 18:23:14;;;;;;;5.1;1.9;;;;;;;;;;;;;
2020/09/14 18:25:39;;;;;;;7.5;3.4;;;;;;;;;;;;;
2020/09/14 18:28:04;;;;;;;7.4;2.5;;;;;;;;;;;;;
2020/09/14 18:30:29;;;;;;;6.5;2.7;;;;;;;;;;;;;
2020/09/14 18:32:55;;;;;;;4.3;2.2;;;;;;;;;;;;;
2020/09/14 18:35:20;;;;;;;3.2;2;;;;;;;;;;;;;
2020/09/14 18:37:47;;;;;;;4.2;2.1;;;;;;;;;;;;;
2020/09/14 18:40:16;;;;;;;2.6;2.2;;;;;;;;;;;;;
2020/09/14 18:42:38;;;;;;;3.9;1.9;;;;;;;;;;;;;
2020/09/14 18:45:02;;;;;;;7.2;2.3;;;;;;;;;;;;;
2020/09/14 18:47:27;;;;;;;7.2;2.3;;;;;;;;;;;;;
2020/09/14 18:49:53;;;;;;;3.8;2.1;;;;;;;;;;;;;
2020/09/14 18:52:18;;;;;;;6.4;2.2;;;;;;;;;;;;;
2020/09/14 18:54:44;;;;;;;2.8;1.9;;;;;;;;;;;;;
2020/09/14 18:57:09;;;;;;;5.4;2.4;;;;;;;;;;;;;
2020/09/14 18:59:34;;;;;;;4.9;2.6;;;;;;;;;;;;;
2020/09/14 19:01:59;;;;;;;3.6;2.3;;;;;;;;;;;;;
2020/09/14 19:04:25;;;;;;;5.7;2.9;;;;;;;;;;;;;
2020/09/14 19:06:50;;;;;;;5.6;2.7;;;;;;;;;;;;;
2020/09/14 19:09:15;;;;;;;5.2;3.1;;;;;;;;;;;;;
2020/09/14 19:11:40;;;;;;;3.8;2.5;;;;;;;;;;;;;
2020/09/14 19:14:05;;;;;;;4.7;3;;;;;;;;;;;;;
2020/09/14 19:16:31;;;;;;;7.1;3.3;;;;;;;;;;;;;
2020/09/14 19:18:56;;;;;;;4.6;2.6;;;;;;;;;;;;;
2020/09/14 19:21:21;;;;;;;4.5;2.4;;;;;;;;;;;;;
2020/09/14 19:23:46;;;;;;;4.3;1.9;;;;;;;;;;;;;
2020/09/14 19:26:11;;;;;;;4.5;2.3;;;;;;;;;;;;;
2020/09/14 19:28:36;;;;;;;3.9;2.4;;;;;;;;;;;;;
2020/09/14 19:31:02;;;;;;;5.6;1.8;;;;;;;;;;;;;
2020/09/14 19:33:27;;;;;;;9.6;4.3;;;;;;;;;;;;;
2020/09/14 19:35:54;;;;;;;5.8;3.4;;;;;;;;;;;;;
2020/09/14 19:38:18;;;;;;;4.9;2.7;;;;;;;;;;;;;
2020/09/14 19:40:43;;;;;;;3.2;2.2;;;;;;;;;;;;;
2020/09/14 19:43:08;;;;;;;3.4;2.3;;;;;;;;;;;;;
2020/09/14 19:45:33;;;;;;;2;1.4;;;;;;;;;;;;;
2020/09/14 19:47:59;;;;;;;2.6;1.8;;;;;;;;;;;;;
2020/09/14 19:50:24;;;;;;;4.5;2.2;;;;;;;;;;;;;
2020/09/14 19:52:49;;;;;;;4.6;2.4;;;;;;;;;;;;;
2020/09/14 19:55:14;;;;;;;9.5;2;;;;;;;;;;;;;
2020/09/14 19:57:39;;;;;;;2.9;1.6;;;;;;;;;;;;;
2020/09/14 20:00:04;;;;;;;3.8;1.9;;;;;;;;;;;;;
2020/09/14 20:02:30;;;;;;;2.5;1.6;;;;;;;;;;;;;
2020/09/14 20:04:55;;;;;;;4.8;1.9;;;;;;;;;;;;;
2020/09/14 20:09:46;;;;;;;3.8;1.7;;;;;;;;;;;;;
2020/09/14 20:12:19;;;;;;;3.1;1.7;;;;;;;;;;;;;
2020/09/14 20:14:40;;;;;;;2.5;1.4;;;;;;;;;;;;;
2020/09/14 20:17:01;;;;;;;2;1.7;;;;;;;;;;;;;
2020/09/14 20:19:26;;;;;;;4.5;2;;;;;;;;;;;;;
2020/09/14 20:21:51;;;;;;;1.8;1.1;;;;;;;;;;;;;
2020/09/14 20:24:17;;;;;;;2.1;1.6;;;;;;;;;;;;;
2020/09/14 20:26:41;;;;;;;3;1.3;;;;;;;;;;;;;
2020/09/14 20:29:08;;;;;;;3.4;1.3;;;;;;;;;;;;;
2020/09/14 20:31:32;;;;;;;4;1.9;;;;;;;;;;;;;
2020/09/14 20:33:57;;;;;;;1.8;1.2;;;;;;;;;;;;;
2020/09/14 20:36:22;;;;;;;2.8;1.7;;;;;;;;;;;;;
2020/09/14 20:38:47;;;;;;;2.7;1.8;;;;;;;;;;;;;
2020/09/14 20:41:12;;;;;;;2.1;1.4;;;;;;;;;;;;;